Aérodrome :
LOGIN :

S'inscrire | Disclaimer

   EN    FR    IT 

 










Légende :    VFR   VFR Marginal   IFR   IFR Intensif   IFR Très Intensif
Visi : 
Plafond : 
>= 8 km
>= 3000ft
5 à 8 km
1000 à 3000 ft
1500m à 5 km
500 à 1000 ft
800 à 1500m
200 à 500 ft
< 800m
< 200 ft
Symboles :   Orages  Brouillard  Fortes neiges  Fortes précipitations  Vent > 20 kt
SIGMETs :   Divers  Orages  Givrage  Turbulence  Onde Orograph.  Cendres Volcan.






- Altitude de l'aérodrome : 348 ft
- Code IATA : LDV


LFRJ - Landivisiau

DERNIER METAR :
  • 031600Z AUTO 18014KT 9999 -RA FEW014 SCT056 OVC072 09/08 Q1006

METARs EXPIRÉS :
  • 031530Z AUTO 19015KT 9999 -RADZ BKN014 BKN021 BKN042 10/08 Q1006
  • 031500Z AUTO 18011KT 9999 BKN019 BKN038 BKN064 10/08 Q1006
  • 031430Z AUTO 18012KT 9999 SCT017/// BKN025/// BKN066/// ///TCU 10/08 Q1007
  • 031400Z AUTO 18010KT 9999 SCT023/// BKN029/// BKN035/// ///TCU 11/08 Q1008
  • 031330Z AUTO 18010KT 9999 -RA BKN026/// BKN046/// BKN064/// ///TCU 11/08 Q1008
  • 031300Z AUTO 19012KT 9999 SCT024 SCT034 BKN048 11/08 Q1009
  • 031230Z AUTO 18011KT 9999 BKN020/// BKN026/// BKN046/// ///TCU 11/08 Q1010
  • 031200Z AUTO 19009KT 150V210 9999 FEW023 SCT064 BKN150 11/08 Q1010
  • 031130Z AUTO 18012KT 9999 FEW017 SCT047 BKN058 11/07 Q1011

Prévision TAF périmée.



MET'MAP, la Météo Aéronautique d'un coup d'oeil ! - Copyright ORBIFLY Décembre 2007 - Disclaimer

ORBIFLY MET'MAP TEAM :

Programmation & Développement : Alexandra Zaïnal
Sur une idée originale de : Baudouin d'Aumeries
Soutien technique & logistique : Manuel Goepfert
Assistance : Marc-Olivier Méhu




SOURCES & CREDITS :

   NOAA